createdAt,value
2022-10-15T00:01:35.693Z,15.60
2022-10-15T00:04:05.662Z,15.60
2022-10-15T00:06:34.183Z,15.60
2022-10-15T00:09:02.702Z,15.60
2022-10-15T00:11:31.690Z,15.60
2022-10-15T00:14:01.607Z,15.60
2022-10-15T00:16:30.916Z,15.60
2022-10-15T00:19:00.788Z,15.60
2022-10-15T00:21:30.449Z,15.60
2022-10-15T00:23:58.924Z,15.60
2022-10-15T00:26:29.349Z,15.60
2022-10-15T00:29:00.068Z,15.60
2022-10-15T00:31:29.432Z,15.60
2022-10-15T00:34:00.134Z,15.60
2022-10-15T00:36:32.095Z,15.60
2022-10-15T00:39:00.949Z,15.60
2022-10-15T00:41:30.961Z,15.60
2022-10-15T00:44:01.039Z,15.60
2022-10-15T00:46:33.574Z,15.60
2022-10-15T00:51:44.060Z,15.50
2022-10-15T00:54:13.875Z,15.50
2022-10-15T00:56:44.630Z,15.50
2022-10-15T00:59:15.308Z,15.60
2022-10-15T01:01:43.794Z,15.20
2022-10-15T01:04:14.316Z,15.50
2022-10-15T01:06:43.930Z,15.50
2022-10-15T01:09:12.521Z,15.50
2022-10-15T01:11:44.167Z,15.60
2022-10-15T01:14:29.826Z,15.50
2022-10-15T01:17:06.639Z,15.50
2022-10-15T01:19:58.853Z,15.50
2022-10-15T01:22:42.613Z,15.50
2022-10-15T01:25:23.286Z,15.50
2022-10-15T01:27:55.884Z,15.50
2022-10-15T01:30:37.530Z,15.50
2022-10-15T01:33:25.853Z,15.50
2022-10-15T01:36:01.315Z,15.50
2022-10-15T01:38:42.946Z,15.50
2022-10-15T01:41:16.627Z,15.50
2022-10-15T01:43:47.997Z,15.50
2022-10-15T01:47:02.108Z,15.50
2022-10-15T01:49:33.950Z,15.50
2022-10-15T01:52:11.532Z,15.50
2022-10-15T01:54:41.649Z,15.50
2022-10-15T01:57:12.148Z,15.50
2022-10-15T01:59:43.540Z,15.50
2022-10-15T02:02:13.804Z,15.50
2022-10-15T02:04:42.077Z,15.50
2022-10-15T02:07:13.697Z,15.50
2022-10-15T02:09:44.628Z,15.50
2022-10-15T02:12:31.968Z,15.50
2022-10-15T02:15:08.013Z,15.50
2022-10-15T02:17:43.077Z,15.50
2022-10-15T02:20:19.075Z,15.50
2022-10-15T02:22:51.954Z,15.50
2022-10-15T02:25:23.488Z,15.50
2022-10-15T02:27:55.422Z,15.50
2022-10-15T02:30:24.360Z,15.50
2022-10-15T02:32:57.746Z,15.50
2022-10-15T02:35:27.390Z,15.50
2022-10-15T02:37:57.282Z,15.50
2022-10-15T02:40:29.544Z,15.50
2022-10-15T02:42:58.921Z,15.50
2022-10-15T02:45:27.511Z,15.50
2022-10-15T02:47:57.247Z,15.50
2022-10-15T02:50:26.368Z,15.50
2022-10-15T02:52:54.604Z,15.50
2022-10-15T02:55:22.910Z,15.50
2022-10-15T02:57:51.211Z,15.50
2022-10-15T03:00:19.973Z,15.50
2022-10-15T03:02:50.659Z,15.50
2022-10-15T03:05:22.231Z,15.50
2022-10-15T03:07:50.550Z,15.50
2022-10-15T03:10:20.196Z,15.50
2022-10-15T03:12:48.482Z,15.50
2022-10-15T03:15:16.837Z,15.50
2022-10-15T03:17:47.187Z,15.70
2022-10-15T03:20:18.173Z,15.50
2022-10-15T03:22:47.962Z,15.50
2022-10-15T03:25:17.714Z,15.50
2022-10-15T03:27:46.491Z,15.50
2022-10-15T03:30:25.243Z,15.40
2022-10-15T03:32:53.734Z,15.40
2022-10-15T03:35:21.923Z,15.50
2022-10-15T03:37:51.761Z,15.50
2022-10-15T03:40:20.343Z,15.50
2022-10-15T03:42:51.858Z,15.50
2022-10-15T03:45:25.309Z,15.50
2022-10-15T03:48:08.317Z,15.50
2022-10-15T03:50:36.579Z,15.50
2022-10-15T03:53:07.113Z,15.50
2022-10-15T03:55:36.003Z,15.50
2022-10-15T03:58:04.524Z,15.50
2022-10-15T04:00:32.898Z,15.50
2022-10-15T04:03:04.198Z,15.60
2022-10-15T04:05:32.618Z,15.50
2022-10-15T04:08:07.394Z,15.50
2022-10-15T04:10:39.756Z,15.50
2022-10-15T04:13:08.486Z,15.50
2022-10-15T04:15:40.479Z,15.50
2022-10-15T04:18:12.300Z,15.50
2022-10-15T04:20:42.774Z,15.50
2022-10-15T04:23:16.327Z,15.50
2022-10-15T04:26:01.251Z,15.50
2022-10-15T04:28:31.043Z,15.50
2022-10-15T04:30:59.689Z,15.50
2022-10-15T04:33:28.704Z,15.50
2022-10-15T04:36:00.907Z,15.50
2022-10-15T04:38:46.208Z,15.50
2022-10-15T04:41:14.656Z,15.50
2022-10-15T04:43:52.414Z,15.50
2022-10-15T04:46:22.470Z,15.50
2022-10-15T04:48:52.763Z,15.50
2022-10-15T04:51:22.347Z,15.50
2022-10-15T04:54:21.224Z,15.50
2022-10-15T04:57:01.095Z,15.50
2022-10-15T04:59:29.397Z,15.50
2022-10-15T05:02:17.987Z,15.50
2022-10-15T05:04:51.266Z,15.50
2022-10-15T05:07:19.824Z,15.50
2022-10-15T05:09:51.114Z,15.50
2022-10-15T05:12:20.469Z,15.50
2022-10-15T05:14:49.021Z,15.50
2022-10-15T05:17:24.019Z,15.50
2022-10-15T05:19:52.550Z,15.50
2022-10-15T05:22:25.916Z,15.50
2022-10-15T05:25:00.124Z,15.50
2022-10-15T05:27:31.268Z,15.50
2022-10-15T05:30:00.613Z,15.60
2022-10-15T05:32:40.390Z,15.60
2022-10-15T05:35:12.525Z,15.60
2022-10-15T05:38:12.973Z,15.60
2022-10-15T05:40:49.123Z,15.60
2022-10-15T05:43:24.636Z,15.60
2022-10-15T05:45:55.339Z,15.60
2022-10-15T05:48:24.615Z,15.60
2022-10-15T05:50:52.893Z,15.60
2022-10-15T05:53:26.565Z,15.60
2022-10-15T05:56:01.416Z,15.60
2022-10-15T05:58:37.285Z,15.60
2022-10-15T06:01:08.660Z,15.60
2022-10-15T06:03:40.247Z,15.60
2022-10-15T06:06:15.941Z,15.60
2022-10-15T06:08:44.454Z,15.60
2022-10-15T06:11:14.064Z,15.60
2022-10-15T06:13:43.753Z,15.60
2022-10-15T06:16:14.771Z,15.60
2022-10-15T06:18:45.062Z,15.60
2022-10-15T06:21:14.136Z,15.60
2022-10-15T06:23:43.382Z,15.60
2022-10-15T06:26:13.448Z,15.60
2022-10-15T06:28:43.264Z,15.70
2022-10-15T06:31:12.331Z,15.60
2022-10-15T06:33:40.605Z,15.60
2022-10-15T06:36:11.687Z,15.60
2022-10-15T06:38:40.222Z,15.60
2022-10-15T06:41:09.320Z,15.60
2022-10-15T06:43:39.091Z,15.60
2022-10-15T06:46:07.719Z,15.60
2022-10-15T06:48:36.184Z,15.60
2022-10-15T06:51:05.629Z,15.60
2022-10-15T06:53:34.313Z,15.60
2022-10-15T06:56:03.862Z,15.60
2022-10-15T06:58:39.000Z,15.60
2022-10-15T07:01:09.019Z,15.60
2022-10-15T07:03:39.025Z,15.60
2022-10-15T07:06:09.746Z,15.60
2022-10-15T07:08:38.039Z,15.60
2022-10-15T07:11:08.748Z,15.60
2022-10-15T07:13:38.757Z,15.60
2022-10-15T07:16:11.319Z,15.70
2022-10-15T07:18:40.468Z,15.60
2022-10-15T07:23:39.300Z,15.70
2022-10-15T07:26:07.563Z,15.70
2022-10-15T07:28:35.877Z,15.60
2022-10-15T07:31:07.766Z,15.60
2022-10-15T07:33:36.718Z,15.60
2022-10-15T07:36:06.278Z,15.60
2022-10-15T07:38:34.989Z,15.60
2022-10-15T07:41:04.886Z,15.70
2022-10-15T07:43:36.553Z,15.60
2022-10-15T07:46:06.820Z,15.60
2022-10-15T07:48:35.023Z,15.60
2022-10-15T07:51:05.414Z,15.60
2022-10-15T07:53:34.154Z,15.60
2022-10-15T07:56:03.863Z,15.70
2022-10-15T07:58:35.165Z,15.70
2022-10-15T08:01:05.648Z,15.60
2022-10-15T08:03:33.975Z,15.60
2022-10-15T08:06:03.223Z,15.60
2022-10-15T08:08:32.042Z,15.70
2022-10-15T08:11:00.265Z,15.60
2022-10-15T08:13:28.568Z,15.60
2022-10-15T08:16:00.180Z,15.60
2022-10-15T08:18:30.191Z,15.70
2022-10-15T08:21:01.336Z,15.70
2022-10-15T08:23:29.764Z,15.70
2022-10-15T08:26:00.713Z,15.70
2022-10-15T08:28:29.278Z,15.60
2022-10-15T08:31:02.632Z,15.60
2022-10-15T08:33:35.836Z,15.70
2022-10-15T08:36:05.407Z,15.70
2022-10-15T08:38:34.438Z,15.70
2022-10-15T08:41:03.982Z,15.60
2022-10-15T08:43:37.412Z,15.60
2022-10-15T08:46:11.828Z,15.60
2022-10-15T08:48:44.826Z,15.60
2022-10-15T08:51:17.478Z,15.60
2022-10-15T08:53:50.771Z,15.60
2022-10-15T08:56:22.020Z,15.60
2022-10-15T08:58:58.657Z,15.60
2022-10-15T09:01:33.804Z,15.60
2022-10-15T09:04:14.831Z,15.60
2022-10-15T09:06:43.385Z,15.60
2022-10-15T09:09:19.491Z,15.60
2022-10-15T09:11:58.034Z,15.60
2022-10-15T09:14:31.105Z,15.60
2022-10-15T09:17:05.411Z,15.60
2022-10-15T09:19:37.661Z,15.70
2022-10-15T09:22:16.036Z,15.70
2022-10-15T09:24:47.064Z,15.70
2022-10-15T09:27:32.539Z,15.70
2022-10-15T09:30:08.101Z,15.70
2022-10-15T09:32:41.784Z,15.70
2022-10-15T09:35:18.217Z,15.70
2022-10-15T09:37:53.065Z,15.80
2022-10-15T09:40:34.500Z,15.70
2022-10-15T09:43:04.109Z,15.70
2022-10-15T09:45:32.507Z,15.70
2022-10-15T09:48:04.021Z,15.70
2022-10-15T09:50:41.536Z,15.80
2022-10-15T09:53:23.280Z,15.80
2022-10-15T09:56:02.664Z,15.80
2022-10-15T09:58:40.466Z,15.80
2022-10-15T10:01:09.940Z,15.80
2022-10-15T10:03:41.418Z,15.80
2022-10-15T10:06:14.755Z,15.80
2022-10-15T10:08:53.149Z,15.80
2022-10-15T10:11:23.166Z,15.80
2022-10-15T10:13:54.691Z,15.80
2022-10-15T10:16:24.261Z,15.90
2022-10-15T10:19:07.442Z,15.90
2022-10-15T10:21:39.397Z,15.90
2022-10-15T10:24:23.420Z,15.90
2022-10-15T10:26:51.690Z,15.90
2022-10-15T10:29:33.595Z,15.90
2022-10-15T10:32:12.264Z,15.90
2022-10-15T10:34:47.526Z,15.90
2022-10-15T10:37:20.423Z,15.80
2022-10-15T10:39:54.418Z,15.90
2022-10-15T10:42:32.066Z,15.90
2022-10-15T10:45:18.847Z,15.90
2022-10-15T10:47:47.837Z,15.90
2022-10-15T10:50:32.327Z,15.90
2022-10-15T10:53:15.771Z,15.90
2022-10-15T10:55:46.640Z,15.90
2022-10-15T10:58:23.401Z,16.00
2022-10-15T11:00:55.686Z,16.00
2022-10-15T11:03:36.398Z,16.00
2022-10-15T11:06:32.883Z,16.00
2022-10-15T11:09:17.325Z,15.90
2022-10-15T11:12:00.952Z,16.00
2022-10-15T11:14:38.466Z,16.00
2022-10-15T11:17:15.643Z,16.00
2022-10-15T11:20:12.304Z,16.00
2022-10-15T11:22:52.022Z,16.00
2022-10-15T11:25:30.029Z,16.00
2022-10-15T11:28:10.078Z,16.00
2022-10-15T11:30:49.045Z,16.00
2022-10-15T11:33:36.889Z,16.10
2022-10-15T11:36:33.674Z,16.00
2022-10-15T11:39:22.360Z,16.00
2022-10-15T11:42:01.170Z,16.10
2022-10-15T11:44:51.503Z,16.00
2022-10-15T11:47:33.393Z,16.00
2022-10-15T11:50:06.292Z,16.00
2022-10-15T11:52:49.030Z,16.00
2022-10-15T11:55:21.856Z,16.10
2022-10-15T11:57:55.037Z,16.10
2022-10-15T12:00:33.320Z,16.10
2022-10-15T12:03:06.827Z,16.10
2022-10-15T12:05:39.610Z,16.10
2022-10-15T12:08:11.667Z,16.10
2022-10-15T12:11:05.521Z,16.10
2022-10-15T12:13:41.299Z,16.10
2022-10-15T12:16:25.437Z,16.10
2022-10-15T12:18:59.117Z,16.20
2022-10-15T12:21:37.679Z,16.10
2022-10-15T12:24:10.692Z,16.10
2022-10-15T12:26:39.393Z,16.10
2022-10-15T12:29:23.021Z,16.10
2022-10-15T12:31:53.272Z,16.20
2022-10-15T12:34:32.050Z,16.20
2022-10-15T12:37:05.820Z,16.20
2022-10-15T12:39:51.162Z,16.20
2022-10-15T12:42:27.595Z,16.20
2022-10-15T12:44:59.455Z,16.20
2022-10-15T12:47:51.537Z,16.20
2022-10-15T12:50:22.389Z,16.20
2022-10-15T12:53:02.413Z,16.20
2022-10-15T12:55:33.353Z,16.20
2022-10-15T12:58:07.520Z,16.20
2022-10-15T13:00:42.923Z,16.20
2022-10-15T13:03:42.309Z,16.20
2022-10-15T13:06:32.909Z,16.20
2022-10-15T13:09:16.854Z,16.20
2022-10-15T13:11:47.813Z,16.20
2022-10-15T13:14:24.859Z,16.20
2022-10-15T13:16:58.918Z,16.20
2022-10-15T13:19:29.539Z,16.20
2022-10-15T13:22:00.171Z,16.30
2022-10-15T13:24:31.979Z,16.20
2022-10-15T13:27:02.566Z,16.40
2022-10-15T13:29:30.931Z,16.20
2022-10-15T13:32:01.861Z,16.20
2022-10-15T13:34:33.322Z,16.20
2022-10-15T13:37:03.900Z,16.20
2022-10-15T13:42:15.508Z,16.30
2022-10-15T13:44:45.173Z,16.30
2022-10-15T13:47:27.947Z,16.30
2022-10-15T13:50:18.040Z,16.30
2022-10-15T13:52:48.899Z,16.30
2022-10-15T13:55:20.656Z,16.30
2022-10-15T13:57:51.146Z,16.30
2022-10-15T14:00:26.823Z,16.30
2022-10-15T14:03:19.707Z,16.20
2022-10-15T14:05:49.859Z,16.20
2022-10-15T14:08:21.235Z,16.20
2022-10-15T14:10:51.191Z,16.20
2022-10-15T14:13:19.642Z,16.20
2022-10-15T14:18:38.877Z,16.30
2022-10-15T14:21:13.048Z,16.30
2022-10-15T14:23:43.026Z,16.30
2022-10-15T14:26:12.652Z,16.30
2022-10-15T14:28:42.037Z,16.30
2022-10-15T14:31:10.686Z,16.30
2022-10-15T14:33:45.351Z,16.20
2022-10-15T14:36:24.372Z,16.20
2022-10-15T14:38:53.836Z,16.20
2022-10-15T14:41:28.439Z,16.20
2022-10-15T14:44:07.179Z,16.20
2022-10-15T14:46:42.207Z,16.20
2022-10-15T14:49:24.341Z,16.10
2022-10-15T14:51:57.995Z,16.10
2022-10-15T14:54:31.835Z,16.20
2022-10-15T14:57:00.293Z,16.20
2022-10-15T14:59:32.869Z,16.10
2022-10-15T15:02:03.518Z,16.20
2022-10-15T15:04:44.665Z,16.20
2022-10-15T15:07:18.644Z,16.20
2022-10-15T15:09:51.894Z,16.20
2022-10-15T15:12:26.959Z,16.20
2022-10-15T15:14:56.489Z,16.10
2022-10-15T15:17:27.457Z,16.10
2022-10-15T15:19:58.884Z,16.10
2022-10-15T15:22:31.369Z,16.10
2022-10-15T15:25:01.470Z,16.10
2022-10-15T15:27:31.836Z,16.10
2022-10-15T15:30:00.184Z,16.10
2022-10-15T15:32:28.614Z,16.10
2022-10-15T15:34:59.380Z,16.80
2022-10-15T15:37:29.479Z,16.10
2022-10-15T15:39:59.322Z,16.10
2022-10-15T15:42:27.865Z,16.10
2022-10-15T15:44:56.367Z,16.10
2022-10-15T15:47:24.761Z,16.10
2022-10-15T15:49:53.116Z,16.10
2022-10-15T15:52:23.223Z,16.10
2022-10-15T15:54:52.017Z,16.10
2022-10-15T15:57:20.267Z,16.10
2022-10-15T15:59:48.638Z,16.10
2022-10-15T16:02:17.277Z,16.10
2022-10-15T16:04:46.020Z,16.10
2022-10-15T16:07:15.302Z,16.10
2022-10-15T16:09:46.588Z,16.10
2022-10-15T16:12:14.923Z,16.10
2022-10-15T16:14:43.150Z,16.10
2022-10-15T16:17:11.619Z,16.10
2022-10-15T16:19:39.897Z,16.10
2022-10-15T16:22:08.288Z,16.10
2022-10-15T16:24:36.967Z,16.10
2022-10-15T16:27:06.690Z,16.10
2022-10-15T16:29:35.486Z,16.10
2022-10-15T16:32:03.794Z,16.20
2022-10-15T16:34:32.013Z,16.20
2022-10-15T16:37:00.451Z,16.20
2022-10-15T16:39:29.015Z,16.20
2022-10-15T16:41:57.495Z,16.20
2022-10-15T16:44:27.212Z,16.10
2022-10-15T16:46:55.514Z,16.20
2022-10-15T16:49:23.890Z,16.10
2022-10-15T16:51:52.197Z,16.10
2022-10-15T16:54:20.405Z,16.20
2022-10-15T16:56:51.999Z,16.30
2022-10-15T16:59:21.447Z,16.40
2022-10-15T17:01:51.191Z,16.50
2022-10-15T17:04:19.592Z,16.50
2022-10-15T17:06:47.969Z,16.50
2022-10-15T17:09:16.300Z,16.50
2022-10-15T17:11:46.948Z,16.50
2022-10-15T17:14:18.302Z,16.50
2022-10-15T17:16:48.235Z,16.50
2022-10-15T17:19:20.383Z,16.50
2022-10-15T17:21:49.021Z,16.50
2022-10-15T17:24:19.299Z,16.60
2022-10-15T17:26:48.389Z,16.60
2022-10-15T17:29:20.186Z,16.60
2022-10-15T17:31:49.232Z,16.60
2022-10-15T17:34:19.442Z,16.60
2022-10-15T17:36:49.257Z,16.60
2022-10-15T17:39:19.743Z,16.60
2022-10-15T17:41:48.067Z,16.60
2022-10-15T17:44:16.411Z,16.70
2022-10-15T17:46:44.708Z,16.80
2022-10-15T17:49:18.138Z,17.30
2022-10-15T17:51:48.522Z,17.20
2022-10-15T17:54:16.815Z,17.10
2022-10-15T17:56:45.945Z,17.00
2022-10-15T17:59:14.298Z,16.90
2022-10-15T18:02:00.796Z,16.80
2022-10-15T18:04:31.440Z,16.70
2022-10-15T18:07:01.135Z,16.70
2022-10-15T18:09:29.768Z,16.60
2022-10-15T18:12:00.497Z,16.50
2022-10-15T18:14:29.241Z,16.50
2022-10-15T18:16:57.486Z,16.50
2022-10-15T18:19:26.834Z,16.40
2022-10-15T18:21:55.375Z,16.40
2022-10-15T18:24:25.705Z,16.40
2022-10-15T18:26:53.986Z,16.40
2022-10-15T18:29:25.167Z,16.40
2022-10-15T18:31:57.749Z,16.40
2022-10-15T18:34:28.645Z,16.40
2022-10-15T18:36:57.292Z,16.40
2022-10-15T18:39:27.648Z,16.40
2022-10-15T18:41:56.523Z,16.30
2022-10-15T18:44:25.644Z,16.40
2022-10-15T18:46:54.073Z,16.30
2022-10-15T18:49:22.680Z,16.30
2022-10-15T18:51:53.173Z,16.30
2022-10-15T18:54:22.801Z,16.30
2022-10-15T18:56:53.070Z,16.30
2022-10-15T18:59:22.129Z,16.30
2022-10-15T19:01:50.987Z,16.30
2022-10-15T19:04:21.151Z,16.30
2022-10-15T19:06:51.352Z,16.30
2022-10-15T19:09:22.036Z,16.30
2022-10-15T19:11:54.283Z,16.30
2022-10-15T19:14:23.205Z,16.20
2022-10-15T19:16:52.084Z,16.20
2022-10-15T19:19:22.492Z,16.30
2022-10-15T19:21:52.073Z,16.30
2022-10-15T19:24:22.020Z,16.50
2022-10-15T19:26:51.451Z,16.60
2022-10-15T19:29:21.746Z,16.60
2022-10-15T19:31:54.650Z,16.60
2022-10-15T19:34:23.736Z,16.60
2022-10-15T19:36:52.090Z,16.70
2022-10-15T19:39:22.209Z,16.70
2022-10-15T19:41:52.860Z,16.70
2022-10-15T19:44:25.716Z,16.60
2022-10-15T19:46:55.140Z,16.70
2022-10-15T19:49:23.763Z,16.70
2022-10-15T19:51:52.445Z,16.90
2022-10-15T19:54:20.854Z,17.00
2022-10-15T19:56:49.264Z,16.90
2022-10-15T19:59:18.327Z,16.70
2022-10-15T20:01:47.956Z,16.70
2022-10-15T20:04:18.578Z,16.60
2022-10-15T20:06:48.767Z,16.50
2022-10-15T20:09:17.015Z,16.50
2022-10-15T20:11:45.826Z,16.40
2022-10-15T20:14:14.113Z,16.40
2022-10-15T20:16:42.328Z,16.40
2022-10-15T20:19:12.893Z,16.30
2022-10-15T20:21:41.094Z,16.30
2022-10-15T20:24:09.406Z,16.30
2022-10-15T20:26:37.653Z,16.30
2022-10-15T20:29:07.344Z,16.30
2022-10-15T20:31:36.059Z,16.30
2022-10-15T20:34:04.936Z,16.30
2022-10-15T20:36:34.615Z,16.30
2022-10-15T20:39:06.901Z,16.30
2022-10-15T20:41:35.787Z,16.30
2022-10-15T20:44:04.030Z,16.30
2022-10-15T20:46:35.069Z,16.20
2022-10-15T20:49:09.200Z,16.20
2022-10-15T20:51:42.314Z,16.20
2022-10-15T20:54:13.442Z,16.20
2022-10-15T20:56:42.520Z,16.20
2022-10-15T20:59:10.749Z,16.20
2022-10-15T21:01:39.268Z,16.20
2022-10-15T21:04:07.769Z,16.20
2022-10-15T21:06:36.068Z,16.20
2022-10-15T21:09:05.781Z,16.20
2022-10-15T21:11:34.448Z,16.20
2022-10-15T21:14:02.813Z,16.20
2022-10-15T21:19:00.290Z,16.20
2022-10-15T21:21:29.530Z,16.10
2022-10-15T21:23:59.275Z,16.10
2022-10-15T21:26:28.942Z,16.10
2022-10-15T21:28:57.698Z,16.20
2022-10-15T21:31:26.832Z,16.10
2022-10-15T21:33:56.278Z,16.20
2022-10-15T21:36:26.641Z,16.10
2022-10-15T21:38:56.651Z,16.10
2022-10-15T21:41:26.725Z,16.10
2022-10-15T21:43:56.371Z,16.10
2022-10-15T21:46:25.240Z,16.10
2022-10-15T21:48:54.440Z,16.10
2022-10-15T21:51:24.921Z,16.10
2022-10-15T21:53:53.897Z,16.10
2022-10-15T21:56:22.589Z,16.10
2022-10-15T21:58:52.041Z,16.00
2022-10-15T22:01:23.644Z,16.10
2022-10-15T22:03:53.121Z,16.00
2022-10-15T22:06:22.434Z,16.00
2022-10-15T22:08:50.865Z,16.00
2022-10-15T22:11:21.595Z,16.00
2022-10-15T22:13:52.330Z,16.00
2022-10-15T22:16:22.513Z,16.00
2022-10-15T22:18:50.764Z,16.00
2022-10-15T22:21:21.828Z,16.10
2022-10-15T22:23:52.659Z,16.00
2022-10-15T22:26:22.776Z,16.00
2022-10-15T22:28:52.919Z,16.00
2022-10-15T22:31:23.064Z,16.00
2022-10-15T22:33:51.419Z,15.90
2022-10-15T22:36:21.382Z,16.00
2022-10-15T22:41:22.138Z,16.00
2022-10-15T22:43:51.151Z,15.90
2022-10-15T22:46:19.409Z,15.90
2022-10-15T22:48:49.420Z,15.90
2022-10-15T22:51:18.077Z,15.90
2022-10-15T22:53:46.335Z,15.90
2022-10-15T22:56:16.567Z,15.90
2022-10-15T22:58:45.951Z,15.90
2022-10-15T23:01:17.873Z,15.80
2022-10-15T23:03:49.240Z,15.90
2022-10-15T23:06:18.192Z,15.80
2022-10-15T23:08:47.719Z,15.90
2022-10-15T23:11:18.094Z,15.80
2022-10-15T23:13:48.574Z,15.80
2022-10-15T23:16:19.483Z,15.80
2022-10-15T23:18:54.405Z,15.80
2022-10-15T23:21:28.469Z,15.80
2022-10-15T23:23:57.436Z,15.80
2022-10-15T23:26:25.861Z,15.80
2022-10-15T23:28:55.675Z,15.80
2022-10-15T23:31:25.865Z,15.80
2022-10-15T23:33:56.616Z,15.80
2022-10-15T23:36:26.124Z,15.80
2022-10-15T23:38:56.600Z,15.70
2022-10-15T23:41:25.852Z,15.80
2022-10-15T23:43:54.594Z,15.70
2022-10-15T23:46:22.936Z,15.80
2022-10-15T23:48:51.723Z,15.70
2022-10-15T23:51:23.179Z,15.70
2022-10-15T23:53:51.831Z,15.70
2022-10-15T23:56:20.653Z,15.70
2022-10-15T23:58:50.113Z,15.70
